createdAt,value
2023-02-21T00:00:40.801Z,804.33
2023-02-21T00:03:23.104Z,894.77
2023-02-21T00:06:05.738Z,597.70
2023-02-21T00:08:50.671Z,701.77
2023-02-21T00:11:33.016Z,764.50
2023-02-21T00:14:15.687Z,1054.57
2023-02-21T00:16:58.475Z,830.50
2023-02-21T00:19:41.037Z,807.10
2023-02-21T00:22:23.925Z,654.57
2023-02-21T00:25:08.849Z,193.10
2023-02-21T00:27:51.180Z,322.60
2023-02-21T00:30:33.778Z,957.80
2023-02-21T00:33:16.516Z,725.73
2023-02-21T00:35:59.296Z,1075.27
2023-02-21T00:38:41.741Z,435.57
2023-02-21T00:41:26.706Z,673.67
2023-02-21T00:44:09.009Z,994.37
2023-02-21T00:46:51.666Z,665.83
2023-02-21T00:49:34.730Z,983.97
2023-02-21T00:52:17.444Z,832.07
2023-02-21T00:54:59.928Z,1035.77
2023-02-21T00:57:44.827Z,366.80
2023-02-21T01:00:33.013Z,668.10
2023-02-21T01:03:15.389Z,910.07
2023-02-21T01:05:57.860Z,393.77
2023-02-21T01:08:40.148Z,843.97
2023-02-21T01:11:22.734Z,1258.47
2023-02-21T01:14:07.597Z,870.40
2023-02-21T01:16:49.990Z,1402.13
2023-02-21T01:19:33.053Z,968.97
2023-02-21T01:22:16.769Z,658.93
2023-02-21T01:24:59.567Z,384.87
2023-02-21T01:27:42.053Z,670.20
2023-02-21T01:30:27.787Z,807.97
2023-02-21T01:33:10.167Z,728.80
2023-02-21T01:35:52.541Z,487.53
2023-02-21T01:38:34.879Z,380.93
2023-02-21T01:41:17.899Z,1098.90
2023-02-21T01:44:13.761Z,1322.43
2023-02-21T01:46:58.723Z,788.60
2023-02-21T01:49:41.081Z,607.43
2023-02-21T01:52:23.955Z,709.13
2023-02-21T01:55:09.103Z,533.50
2023-02-21T01:57:52.638Z,410.63
2023-02-21T02:00:35.718Z,447.30
2023-02-21T02:03:22.684Z,737.97
2023-02-21T02:06:08.028Z,323.27
2023-02-21T02:08:50.976Z,253.43
2023-02-21T02:11:50.366Z,67.90
2023-02-21T02:14:42.280Z,76.13
2023-02-21T02:17:20.872Z,39.20
2023-02-21T02:20:20.877Z,65.70
2023-02-21T02:23:29.562Z,58.90
2023-02-21T02:26:27.574Z,273.53
2023-02-21T02:29:14.546Z,278.30
2023-02-21T02:32:11.569Z,237.47
2023-02-21T02:35:01.560Z,523.07
2023-02-21T02:37:38.482Z,50.17
2023-02-21T02:40:20.934Z,117.20
2023-02-21T02:43:04.975Z,85.83
2023-02-21T02:45:43.264Z,115.13
2023-02-21T02:48:19.470Z,75.10
2023-02-21T02:50:54.739Z,55.83
2023-02-21T02:53:30.944Z,33.27
2023-02-21T02:56:04.881Z,26.43
2023-02-21T02:58:43.701Z,32.70
2023-02-21T03:01:49.772Z,27.37
2023-02-21T03:04:43.949Z,103.50
2023-02-21T03:07:25.624Z,109.27
2023-02-21T03:10:06.092Z,183.97
2023-02-21T03:12:41.068Z,218.10
2023-02-21T03:15:18.184Z,557.53
2023-02-21T03:17:55.989Z,406.27
2023-02-21T03:20:27.509Z,212.17
2023-02-21T03:23:01.218Z,237.37
2023-02-21T03:25:34.841Z,416.40
2023-02-21T03:28:06.869Z,370.93
2023-02-21T03:30:43.846Z,189.97
2023-02-21T03:33:14.499Z,630.13
2023-02-21T03:35:44.758Z,435.77
2023-02-21T03:38:17.888Z,573.43
2023-02-21T03:40:48.371Z,764.73
2023-02-21T03:43:18.591Z,571.87
2023-02-21T03:45:53.269Z,305.77
2023-02-21T03:48:31.827Z,256.77
2023-02-21T03:51:08.317Z,311.97
2023-02-21T03:53:42.602Z,536.73
2023-02-21T03:56:14.744Z,147.53
2023-02-21T03:59:10.726Z,210.73
2023-02-21T04:01:40.931Z,317.63
2023-02-21T04:04:10.856Z,271.73
2023-02-21T04:06:41.307Z,361.63
2023-02-21T04:09:14.041Z,356.07
2023-02-21T04:11:46.249Z,255.93
2023-02-21T04:14:16.704Z,1079.87
2023-02-21T04:16:46.813Z,825.97
2023-02-21T04:19:16.641Z,495.23
2023-02-21T04:21:47.257Z,881.30
2023-02-21T04:24:20.773Z,632.13
2023-02-21T04:26:51.121Z,451.40
2023-02-21T04:29:21.663Z,432.70
2023-02-21T04:31:51.873Z,522.03
2023-02-21T04:34:22.226Z,1027.53
2023-02-21T04:36:52.093Z,482.60
2023-02-21T04:39:25.597Z,451.40
2023-02-21T04:41:55.415Z,527.00
2023-02-21T04:44:25.677Z,321.67
2023-02-21T04:46:55.632Z,388.43
2023-02-21T04:49:27.659Z,815.40
2023-02-21T04:51:57.756Z,940.80
2023-02-21T04:54:30.664Z,797.60
2023-02-21T04:57:00.683Z,419.03
2023-02-21T04:59:30.558Z,1375.27
2023-02-21T05:02:02.740Z,509.60
2023-02-21T05:04:32.828Z,578.17
2023-02-21T05:07:02.868Z,259.97
2023-02-21T05:09:35.573Z,769.23
2023-02-21T05:12:11.566Z,218.17
2023-02-21T05:14:41.962Z,457.00
2023-02-21T05:17:12.739Z,658.83
2023-02-21T05:19:42.710Z,451.93
2023-02-21T05:22:12.802Z,676.73
2023-02-21T05:24:47.466Z,761.73
2023-02-21T05:27:17.373Z,788.50
2023-02-21T05:29:49.720Z,590.30
2023-02-21T05:32:21.121Z,350.43
2023-02-21T05:34:51.030Z,411.47
2023-02-21T05:37:21.838Z,343.97
2023-02-21T05:39:54.409Z,636.20
2023-02-21T05:42:34.700Z,413.83
2023-02-21T05:45:06.861Z,465.73
2023-02-21T05:47:37.402Z,518.13
2023-02-21T05:50:08.543Z,648.77
2023-02-21T05:52:38.356Z,694.23
2023-02-21T05:55:11.091Z,548.70
2023-02-21T05:57:42.348Z,109.30
2023-02-21T06:00:18.632Z,583.70
2023-02-21T06:02:48.802Z,538.93
2023-02-21T06:05:19.293Z,481.43
2023-02-21T06:07:50.104Z,462.73
2023-02-21T06:10:23.213Z,479.07
2023-02-21T06:12:54.337Z,598.97
2023-02-21T06:15:24.215Z,312.77
2023-02-21T06:17:54.023Z,501.07
2023-02-21T06:20:24.332Z,684.10
2023-02-21T06:22:54.140Z,478.73
2023-02-21T06:25:26.952Z,689.93
2023-02-21T06:27:56.851Z,567.40
2023-02-21T06:30:26.690Z,604.90
2023-02-21T06:32:56.687Z,372.73
2023-02-21T06:35:26.468Z,373.70
2023-02-21T06:37:56.420Z,446.13
2023-02-21T06:40:30.053Z,443.20
2023-02-21T06:43:00.195Z,689.43
2023-02-21T06:45:30.222Z,450.57
2023-02-21T06:48:00.404Z,455.70
2023-02-21T06:50:30.271Z,887.43
2023-02-21T06:53:00.994Z,404.07
2023-02-21T06:55:33.812Z,232.97
2023-02-21T06:58:04.099Z,217.03
2023-02-21T07:00:33.932Z,332.63
2023-02-21T07:03:03.772Z,389.80
2023-02-21T07:05:34.790Z,156.43
2023-02-21T07:08:05.226Z,265.90
2023-02-21T07:10:37.679Z,254.33
2023-02-21T07:13:07.644Z,542.17
2023-02-21T07:15:37.701Z,419.60
2023-02-21T07:18:08.002Z,426.17
2023-02-21T07:23:06.992Z,415.63
2023-02-21T07:25:39.421Z,721.37
2023-02-21T07:28:09.268Z,431.13
2023-02-21T07:30:39.078Z,572.47
2023-02-21T07:33:09.112Z,349.40
2023-02-21T07:35:38.964Z,226.87
2023-02-21T07:38:08.795Z,822.83
2023-02-21T07:40:41.215Z,263.00
2023-02-21T07:43:11.071Z,661.43
2023-02-21T07:45:40.878Z,275.50
2023-02-21T07:48:14.485Z,706.47
2023-02-21T07:50:44.582Z,870.87
2023-02-21T07:53:15.988Z,665.33
2023-02-21T07:55:48.476Z,194.30
2023-02-21T07:58:21.045Z,414.23
2023-02-21T08:00:51.286Z,397.73
2023-02-21T08:03:21.556Z,294.13
2023-02-21T08:05:51.820Z,705.80
2023-02-21T08:08:22.580Z,963.40
2023-02-21T08:10:55.009Z,778.47
2023-02-21T08:13:24.832Z,392.63
2023-02-21T08:15:54.665Z,388.90
2023-02-21T08:18:26.444Z,311.50
2023-02-21T08:20:57.610Z,507.30
2023-02-21T08:23:27.824Z,839.33
2023-02-21T08:26:00.304Z,671.30
2023-02-21T08:28:30.119Z,1101.73
2023-02-21T08:30:59.923Z,991.17
2023-02-21T08:33:31.567Z,890.90
2023-02-21T08:36:02.108Z,319.57
2023-02-21T08:38:32.298Z,489.60
2023-02-21T08:41:06.202Z,1099.63
2023-02-21T08:43:36.396Z,170.63
2023-02-21T08:46:06.443Z,672.00
2023-02-21T08:48:36.445Z,717.97
2023-02-21T08:51:06.530Z,325.17
2023-02-21T08:53:38.999Z,1248.30
2023-02-21T08:56:11.530Z,441.73
2023-02-21T08:58:41.808Z,796.93
2023-02-21T09:01:11.688Z,1011.93
2023-02-21T09:03:41.569Z,370.17
2023-02-21T09:06:11.984Z,540.40
2023-02-21T09:08:42.099Z,622.63
2023-02-21T09:11:16.884Z,796.27
2023-02-21T09:13:46.887Z,1386.53
2023-02-21T09:16:16.754Z,967.50
2023-02-21T09:18:47.240Z,361.13
2023-02-21T09:21:17.062Z,739.03
2023-02-21T09:23:46.908Z,654.53
2023-02-21T09:26:19.315Z,420.30
2023-02-21T09:28:49.175Z,434.30
2023-02-21T09:31:19.170Z,136.00
2023-02-21T09:33:49.356Z,366.33
2023-02-21T09:36:24.101Z,637.90
2023-02-21T09:38:55.122Z,207.63
2023-02-21T09:41:27.750Z,803.83
2023-02-21T09:43:58.403Z,628.07
2023-02-21T09:46:39.642Z,658.83
2023-02-21T09:49:17.628Z,523.50
2023-02-21T09:51:47.835Z,704.47
2023-02-21T09:54:28.410Z,354.17
2023-02-21T09:57:04.013Z,184.37
2023-02-21T09:59:34.772Z,366.23
2023-02-21T10:02:20.625Z,251.07
2023-02-21T10:05:03.283Z,250.80
2023-02-21T10:07:42.673Z,543.80
2023-02-21T10:10:17.428Z,495.13
2023-02-21T10:12:56.713Z,226.40
2023-02-21T10:15:46.228Z,189.87
2023-02-21T10:18:29.593Z,383.90
2023-02-21T10:21:05.618Z,182.50
2023-02-21T10:23:40.976Z,265.40
2023-02-21T10:26:13.740Z,132.07
2023-02-21T10:28:46.977Z,121.73
2023-02-21T10:31:22.047Z,108.30
2023-02-21T10:33:51.880Z,71.57
2023-02-21T10:36:25.743Z,94.53
2023-02-21T10:38:59.824Z,62.77
2023-02-21T10:41:32.580Z,63.20
2023-02-21T10:44:09.560Z,68.80
2023-02-21T10:46:46.263Z,56.23
2023-02-21T10:49:35.974Z,76.97
2023-02-21T10:52:14.204Z,56.30
2023-02-21T10:54:44.045Z,59.13
2023-02-21T10:57:18.679Z,63.43
2023-02-21T10:59:51.716Z,62.37
2023-02-21T11:02:37.467Z,54.47
2023-02-21T11:05:17.033Z,46.30
2023-02-21T11:08:00.952Z,48.70
2023-02-21T11:10:34.290Z,48.33
2023-02-21T11:13:10.323Z,47.73
2023-02-21T11:15:42.890Z,45.50
2023-02-21T11:18:21.968Z,47.43
2023-02-21T11:20:52.037Z,39.93
2023-02-21T11:23:24.350Z,41.73
2023-02-21T11:26:00.389Z,30.83
2023-02-21T11:28:30.567Z,36.30
2023-02-21T11:31:29.990Z,32.63
2023-02-21T11:34:02.351Z,35.07
2023-02-21T11:36:37.695Z,31.37
2023-02-21T11:39:14.116Z,29.37
2023-02-21T11:41:49.981Z,30.40
2023-02-21T11:44:29.140Z,29.10
2023-02-21T11:47:14.087Z,22.60
2023-02-21T11:49:53.286Z,23.60
2023-02-21T11:52:28.088Z,24.17
2023-02-21T11:54:58.048Z,23.47
2023-02-21T11:57:35.197Z,19.67
2023-02-21T12:00:17.208Z,17.87
2023-02-21T12:03:09.122Z,14.77
2023-02-21T12:05:56.118Z,14.70
2023-02-21T12:08:46.863Z,13.50
2023-02-21T12:11:32.196Z,13.53
2023-02-21T12:14:24.190Z,17.13
2023-02-21T12:17:05.510Z,13.10
2023-02-21T12:20:06.790Z,12.57
2023-02-21T12:22:50.882Z,10.33
2023-02-21T12:25:30.246Z,12.00
2023-02-21T12:28:17.366Z,10.40
2023-02-21T12:31:09.229Z,11.50
2023-02-21T12:33:47.164Z,10.17
2023-02-21T12:36:28.161Z,9.50
2023-02-21T12:39:05.708Z,8.97
2023-02-21T12:41:51.130Z,11.00
2023-02-21T12:44:24.904Z,10.37
2023-02-21T12:47:00.892Z,9.93
2023-02-21T12:49:47.715Z,9.90
2023-02-21T12:52:25.565Z,11.63
2023-02-21T12:55:02.317Z,9.70
2023-02-21T12:57:39.047Z,11.90
2023-02-21T13:00:22.506Z,13.50
2023-02-21T13:03:02.608Z,10.57
2023-02-21T13:05:40.207Z,10.40
2023-02-21T13:08:20.928Z,11.77
2023-02-21T13:11:02.709Z,10.57
2023-02-21T13:13:34.955Z,10.80
2023-02-21T13:16:07.304Z,10.20
2023-02-21T13:18:40.329Z,10.27
2023-02-21T13:21:24.281Z,11.10
2023-02-21T13:24:31.561Z,10.20
2023-02-21T13:27:28.264Z,11.40
2023-02-21T13:30:05.998Z,11.90
2023-02-21T13:32:41.999Z,11.13
2023-02-21T13:35:13.749Z,10.87
2023-02-21T13:37:49.480Z,11.07
2023-02-21T13:40:28.273Z,11.40
2023-02-21T13:43:08.164Z,10.37
2023-02-21T13:45:38.242Z,10.30
2023-02-21T13:48:32.399Z,11.43
2023-02-21T13:51:03.971Z,11.93
2023-02-21T13:53:35.885Z,12.47
2023-02-21T13:56:20.611Z,9.17
2023-02-21T13:58:51.610Z,8.70
2023-02-21T14:01:42.834Z,9.60
2023-02-21T14:04:52.825Z,9.77
2023-02-21T14:07:47.511Z,10.30
2023-02-21T14:10:29.729Z,11.37
2023-02-21T14:13:05.716Z,10.80
2023-02-21T14:15:46.803Z,9.90
2023-02-21T14:18:24.357Z,9.03
2023-02-21T14:20:57.264Z,8.77
2023-02-21T14:23:44.369Z,10.13
2023-02-21T14:26:46.459Z,9.20
2023-02-21T14:29:32.694Z,9.90
2023-02-21T14:32:27.030Z,9.23
2023-02-21T14:35:00.938Z,9.40
2023-02-21T14:37:39.055Z,8.77
2023-02-21T14:40:27.710Z,10.83
2023-02-21T14:43:14.512Z,9.80
2023-02-21T14:46:10.066Z,8.73
2023-02-21T14:48:55.257Z,9.13
2023-02-21T14:52:01.066Z,8.70
2023-02-21T14:55:00.638Z,7.23
2023-02-21T14:58:14.345Z,7.20
2023-02-21T15:00:56.837Z,7.30
2023-02-21T15:03:34.772Z,7.47
2023-02-21T15:06:11.431Z,6.90
2023-02-21T15:08:46.680Z,8.90
2023-02-21T15:11:26.020Z,8.63
2023-02-21T15:14:15.785Z,8.20
2023-02-21T15:16:49.195Z,7.80
2023-02-21T15:19:31.246Z,7.63
2023-02-21T15:22:22.382Z,8.87
2023-02-21T15:25:21.049Z,8.10
2023-02-21T15:28:02.899Z,9.37
2023-02-21T15:30:41.338Z,8.83
2023-02-21T15:33:17.785Z,10.63
2023-02-21T15:35:54.423Z,11.57
2023-02-21T15:38:33.375Z,11.10
2023-02-21T15:41:07.980Z,10.10
2023-02-21T15:43:45.069Z,11.47
2023-02-21T15:46:22.528Z,10.27
2023-02-21T15:48:53.548Z,12.40
2023-02-21T15:51:26.473Z,11.83
2023-02-21T15:54:13.855Z,12.27
2023-02-21T15:56:44.166Z,13.10
2023-02-21T15:59:21.926Z,13.70
2023-02-21T16:02:17.479Z,14.57
2023-02-21T16:04:49.260Z,11.83
2023-02-21T16:07:33.975Z,14.90
2023-02-21T16:10:06.097Z,13.83
2023-02-21T16:12:40.606Z,13.97
2023-02-21T16:15:25.083Z,13.13
2023-02-21T16:17:56.837Z,14.63
2023-02-21T16:20:32.320Z,15.03
2023-02-21T16:23:27.724Z,17.90
2023-02-21T16:26:00.553Z,15.53
2023-02-21T16:28:33.764Z,17.73
2023-02-21T16:31:06.779Z,16.10
2023-02-21T16:33:38.200Z,14.70
2023-02-21T16:36:11.439Z,15.07
2023-02-21T16:38:44.197Z,17.63
2023-02-21T16:41:16.858Z,15.60
2023-02-21T16:43:47.157Z,16.93
2023-02-21T16:46:19.427Z,17.67
2023-02-21T16:48:49.514Z,16.43
2023-02-21T16:51:20.337Z,16.43
2023-02-21T16:53:53.643Z,18.40
2023-02-21T16:56:23.959Z,17.80
2023-02-21T16:58:58.420Z,17.93
2023-02-21T17:01:30.957Z,17.77
2023-02-21T17:04:01.666Z,18.53
2023-02-21T17:06:32.190Z,15.80
2023-02-21T17:09:04.802Z,19.43
2023-02-21T17:11:35.024Z,18.30
2023-02-21T17:14:05.100Z,18.37
2023-02-21T17:16:35.346Z,20.00
2023-02-21T17:19:05.108Z,19.33
2023-02-21T17:21:35.118Z,21.60
2023-02-21T17:24:07.698Z,18.30
2023-02-21T17:26:38.006Z,20.00
2023-02-21T17:29:08.413Z,19.40
2023-02-21T17:31:38.618Z,18.40
2023-02-21T17:34:08.620Z,20.07
2023-02-21T17:36:38.496Z,19.67
2023-02-21T17:39:11.025Z,19.17
2023-02-21T17:41:47.852Z,21.00
2023-02-21T17:44:18.529Z,24.90
2023-02-21T17:46:52.267Z,19.60
2023-02-21T17:49:23.699Z,19.23
2023-02-21T17:51:54.762Z,20.90
2023-02-21T17:54:28.129Z,22.60
2023-02-21T17:56:58.731Z,20.30
2023-02-21T17:59:28.629Z,18.70
2023-02-21T18:01:58.609Z,21.33
2023-02-21T18:04:28.503Z,20.13
2023-02-21T18:06:58.771Z,21.43
2023-02-21T18:09:31.481Z,22.87
2023-02-21T18:12:02.652Z,23.20
2023-02-21T18:14:34.649Z,23.73
2023-02-21T18:17:04.904Z,25.03
2023-02-21T18:19:34.719Z,18.47
2023-02-21T18:22:06.253Z,20.67
2023-02-21T18:24:40.192Z,21.37
2023-02-21T18:27:10.388Z,18.43
2023-02-21T18:29:40.184Z,23.63
2023-02-21T18:32:10.206Z,23.80
2023-02-21T18:34:40.046Z,23.93
2023-02-21T18:37:10.735Z,22.07
2023-02-21T18:39:43.157Z,21.13
2023-02-21T18:42:13.281Z,22.80
2023-02-21T18:44:43.096Z,22.40
2023-02-21T18:47:16.937Z,21.60
2023-02-21T18:49:47.231Z,22.77
2023-02-21T18:52:18.268Z,19.70
2023-02-21T18:54:52.836Z,20.50
2023-02-21T18:57:25.189Z,22.70
2023-02-21T18:59:54.961Z,19.80
2023-02-21T19:02:25.043Z,17.47
2023-02-21T19:04:54.884Z,18.00
2023-02-21T19:07:27.815Z,18.93
2023-02-21T19:10:00.180Z,17.37
2023-02-21T19:12:30.112Z,18.90
2023-02-21T19:15:02.609Z,17.50
2023-02-21T19:17:32.791Z,19.97
2023-02-21T19:20:05.802Z,20.67
2023-02-21T19:22:35.634Z,19.67
2023-02-21T19:25:09.684Z,17.83
2023-02-21T19:27:39.639Z,20.73
2023-02-21T19:30:13.695Z,19.03
2023-02-21T19:32:44.182Z,20.10
2023-02-21T19:35:14.560Z,17.47
2023-02-21T19:37:44.637Z,20.60
2023-02-21T19:40:17.314Z,20.30
2023-02-21T19:42:48.731Z,17.63
2023-02-21T19:45:19.343Z,22.37
2023-02-21T19:47:49.443Z,16.60
2023-02-21T19:50:19.912Z,19.00
2023-02-21T19:52:56.328Z,21.83
2023-02-21T19:55:30.630Z,19.37
2023-02-21T19:58:06.281Z,20.03
2023-02-21T20:00:36.282Z,21.13
2023-02-21T20:03:06.392Z,19.67
2023-02-21T20:05:36.844Z,18.10
2023-02-21T20:08:07.784Z,18.37
2023-02-21T20:10:40.323Z,18.03
2023-02-21T20:13:11.195Z,16.17
2023-02-21T20:15:41.072Z,15.60
2023-02-21T20:18:10.895Z,18.00
2023-02-21T20:20:41.438Z,16.50
2023-02-21T20:23:15.782Z,12.53
2023-02-21T20:25:49.137Z,16.10
2023-02-21T20:28:20.102Z,15.10
2023-02-21T20:30:50.340Z,13.43
2023-02-21T20:33:20.755Z,11.90
2023-02-21T20:35:51.337Z,13.33
2023-02-21T20:38:21.588Z,13.90
2023-02-21T20:40:56.491Z,16.70
2023-02-21T20:43:26.823Z,14.43
2023-02-21T20:45:56.788Z,17.30
2023-02-21T20:48:27.493Z,17.80
2023-02-21T20:50:57.305Z,15.50
2023-02-21T20:53:27.129Z,18.43
2023-02-21T20:55:59.648Z,14.77
2023-02-21T20:58:29.927Z,12.90
2023-02-21T21:00:59.789Z,16.70
2023-02-21T21:03:31.065Z,13.70
2023-02-21T21:06:00.967Z,16.30
2023-02-21T21:08:31.513Z,13.13
2023-02-21T21:11:03.916Z,12.17
2023-02-21T21:13:34.124Z,13.23
2023-02-21T21:16:05.264Z,10.20
2023-02-21T21:18:35.514Z,12.63
2023-02-21T21:21:05.346Z,10.00
2023-02-21T21:23:35.612Z,12.83
2023-02-21T21:26:09.572Z,11.10
2023-02-21T21:28:39.879Z,9.87
2023-02-21T21:31:11.645Z,9.23
2023-02-21T21:33:41.410Z,12.00
2023-02-21T21:36:12.198Z,11.50
2023-02-21T21:38:42.662Z,11.80
2023-02-21T21:41:18.115Z,12.20
2023-02-21T21:43:49.306Z,12.70
2023-02-21T21:46:20.222Z,12.50
2023-02-21T21:48:50.486Z,12.70
2023-02-21T21:51:20.281Z,11.70
2023-02-21T21:53:52.101Z,10.83
2023-02-21T21:56:30.954Z,13.00
2023-02-21T21:59:00.878Z,11.17
2023-02-21T22:01:30.787Z,13.63
2023-02-21T22:04:01.509Z,13.50
2023-02-21T22:06:31.329Z,12.93
2023-02-21T22:09:02.117Z,14.20
2023-02-21T22:11:35.932Z,11.93
2023-02-21T22:14:06.717Z,11.53
2023-02-21T22:16:40.389Z,14.40
2023-02-21T22:19:11.384Z,13.40
2023-02-21T22:21:43.099Z,14.00
2023-02-21T22:24:15.413Z,15.00
2023-02-21T22:26:47.793Z,15.63
2023-02-21T22:29:21.405Z,13.80
2023-02-21T22:31:52.540Z,16.07
2023-02-21T22:34:27.191Z,13.93
2023-02-21T22:36:59.032Z,14.00
2023-02-21T22:39:29.851Z,14.20
2023-02-21T22:42:05.459Z,12.90
2023-02-21T22:44:37.320Z,12.70
2023-02-21T22:47:08.540Z,13.87
2023-02-21T22:49:40.563Z,14.80
2023-02-21T22:52:11.023Z,12.10
2023-02-21T22:54:40.814Z,11.90
2023-02-21T22:57:15.489Z,13.53
2023-02-21T22:59:46.475Z,11.43
2023-02-21T23:02:16.891Z,15.13
2023-02-21T23:04:47.019Z,11.60
2023-02-21T23:07:17.445Z,9.80
2023-02-21T23:09:48.653Z,12.20
2023-02-21T23:12:21.666Z,11.70
2023-02-21T23:14:51.611Z,11.57
2023-02-21T23:17:22.433Z,8.80
2023-02-21T23:19:52.255Z,11.60
2023-02-21T23:22:25.196Z,26.03
2023-02-21T23:24:54.979Z,12.07
2023-02-21T23:27:27.299Z,10.47
2023-02-21T23:29:57.816Z,8.73
2023-02-21T23:32:28.972Z,10.07
2023-02-21T23:35:00.020Z,13.23
2023-02-21T23:37:29.864Z,12.90
2023-02-21T23:40:00.490Z,11.07
2023-02-21T23:42:33.080Z,9.63
2023-02-21T23:45:02.996Z,10.60
2023-02-21T23:47:33.088Z,9.70
2023-02-21T23:50:02.869Z,9.73
2023-02-21T23:52:32.942Z,14.27
2023-02-21T23:55:02.895Z,13.07
2023-02-21T23:57:35.749Z,10.53
